sensor_id;sensor_type;location;lat;lon;timestamp;pressure;altitude;pressure_sealevel;temperature;humidity
48968;BME280;46511;53.148;8.204;2023-03-14T00:00:29;98747.47;;;12.80;100.00
48968;BME280;46511;53.148;8.204;2023-03-14T00:03:00;98741.00;;;12.83;100.00
48968;BME280;46511;53.148;8.204;2023-03-14T00:05:31;98756.59;;;12.96;100.00
48968;BME280;46511;53.148;8.204;2023-03-14T00:08:02;98738.94;;;12.95;100.00
48968;BME280;46511;53.148;8.204;2023-03-14T00:10:35;98749.91;;;12.92;100.00
48968;BME280;46511;53.148;8.204;2023-03-14T00:13:07;98749.41;;;12.78;100.00
48968;BME280;46511;53.148;8.204;2023-03-14T00:15:38;98750.03;;;12.72;100.00
48968;BME280;46511;53.148;8.204;2023-03-14T00:18:10;98743.66;;;13.01;100.00
48968;BME280;46511;53.148;8.204;2023-03-14T00:20:41;98734.81;;;12.82;100.00
48968;BME280;46511;53.148;8.204;2023-03-14T00:23:12;98740.31;;;12.99;100.00
48968;BME280;46511;53.148;8.204;2023-03-14T00:25:43;98731.34;;;13.00;100.00
48968;BME280;46511;53.148;8.204;2023-03-14T00:28:15;98732.69;;;13.04;100.00
48968;BME280;46511;53.148;8.204;2023-03-14T00:30:46;98733.38;;;13.06;100.00
48968;BME280;46511;53.148;8.204;2023-03-14T00:33:17;98752.66;;;13.00;100.00
48968;BME280;46511;53.148;8.204;2023-03-14T00:35:52;98745.19;;;13.03;100.00
48968;BME280;46511;53.148;8.204;2023-03-14T00:38:25;98743.44;;;13.12;100.00
48968;BME280;46511;53.148;8.204;2023-03-14T00:40:57;98740.09;;;13.10;100.00
48968;BME280;46511;53.148;8.204;2023-03-14T00:43:29;98736.88;;;13.06;100.00
48968;BME280;46511;53.148;8.204;2023-03-14T00:46:00;98735.13;;;13.15;100.00
48968;BME280;46511;53.148;8.204;2023-03-14T00:48:32;98741.88;;;13.19;100.00
48968;BME280;46511;53.148;8.204;2023-03-14T00:51:04;98729.72;;;13.07;100.00
48968;BME280;46511;53.148;8.204;2023-03-14T00:53:36;98719.28;;;13.13;100.00
48968;BME280;46511;53.148;8.204;2023-03-14T00:56:10;98724.31;;;13.34;100.00
48968;BME280;46511;53.148;8.204;2023-03-14T00:58:42;98714.28;;;13.28;100.00
48968;BME280;46511;53.148;8.204;2023-03-14T01:01:17;98713.97;;;13.31;100.00
48968;BME280;46511;53.148;8.204;2023-03-14T01:03:53;98710.34;;;13.58;100.00
48968;BME280;46511;53.148;8.204;2023-03-14T01:06:26;98721.63;;;13.52;100.00
48968;BME280;46511;53.148;8.204;2023-03-14T01:08:59;98714.50;;;13.61;100.00
48968;BME280;46511;53.148;8.204;2023-03-14T01:11:31;98701.75;;;13.47;100.00
48968;BME280;46511;53.148;8.204;2023-03-14T01:14:04;98696.09;;;13.50;100.00
48968;BME280;46511;53.148;8.204;2023-03-14T01:16:36;98703.94;;;13.51;100.00
48968;BME280;46511;53.148;8.204;2023-03-14T01:19:08;98702.84;;;13.62;100.00
48968;BME280;46511;53.148;8.204;2023-03-14T01:21:40;98689.88;;;13.67;100.00
48968;BME280;46511;53.148;8.204;2023-03-14T01:24:11;98689.63;;;13.78;100.00
48968;BME280;46511;53.148;8.204;2023-03-14T01:26:43;98650.88;;;13.40;100.00
48968;BME280;46511;53.148;8.204;2023-03-14T01:29:14;98670.09;;;13.52;100.00
48968;BME280;46511;53.148;8.204;2023-03-14T01:31:45;98669.38;;;13.41;100.00
48968;BME280;46511;53.148;8.204;2023-03-14T01:34:16;98669.38;;;13.41;100.00
48968;BME280;46511;53.148;8.204;2023-03-14T01:36:47;98676.63;;;13.31;100.00
48968;BME280;46511;53.148;8.204;2023-03-14T01:39:19;98677.59;;;13.48;100.00
48968;BME280;46511;53.148;8.204;2023-03-14T01:41:50;98679.16;;;13.59;100.00
48968;BME280;46511;53.148;8.204;2023-03-14T01:44:21;98676.88;;;13.38;100.00
48968;BME280;46511;53.148;8.204;2023-03-14T01:46:53;98674.38;;;13.44;100.00
48968;BME280;46511;53.148;8.204;2023-03-14T01:49:26;98655.91;;;13.25;100.00
48968;BME280;46511;53.148;8.204;2023-03-14T01:52:05;98651.59;;;13.50;100.00
48968;BME280;46511;53.148;8.204;2023-03-14T01:54:44;98653.84;;;13.37;100.00
48968;BME280;46511;53.148;8.204;2023-03-14T01:57:20;98633.41;;;13.02;100.00
48968;BME280;46511;53.148;8.204;2023-03-14T01:59:57;98627.19;;;13.37;100.00
48968;BME280;46511;53.148;8.204;2023-03-14T02:02:31;98624.66;;;13.35;100.00
48968;BME280;46511;53.148;8.204;2023-03-14T02:05:03;98616.09;;;13.24;100.00
48968;BME280;46511;53.148;8.204;2023-03-14T02:10:45;98629.47;;;13.14;100.00
48968;BME280;46511;53.148;8.204;2023-03-14T02:13:19;98620.66;;;13.13;100.00
48968;BME280;46511;53.148;8.204;2023-03-14T02:15:52;98620.47;;;13.33;100.00
48968;BME280;46511;53.148;8.204;2023-03-14T02:18:23;98631.16;;;13.59;100.00
48968;BME280;46511;53.148;8.204;2023-03-14T02:23:59;98643.88;;;13.39;100.00
48968;BME280;46511;53.148;8.204;2023-03-14T02:27:02;98632.31;;;13.30;100.00
48968;BME280;46511;53.148;8.204;2023-03-14T02:29:39;98630.25;;;13.50;100.00
48968;BME280;46511;53.148;8.204;2023-03-14T02:32:16;98634.97;;;13.56;100.00
48968;BME280;46511;53.148;8.204;2023-03-14T02:34:52;98653.66;;;13.56;100.00
48968;BME280;46511;53.148;8.204;2023-03-14T02:37:30;98673.50;;;13.62;100.00
48968;BME280;46511;53.148;8.204;2023-03-14T02:40:07;98669.97;;;12.92;100.00
48968;BME280;46511;53.148;8.204;2023-03-14T02:42:39;98675.72;;;13.05;100.00
48968;BME280;46511;53.148;8.204;2023-03-14T02:47:43;98670.03;;;13.18;100.00
48968;BME280;46511;53.148;8.204;2023-03-14T02:50:21;98674.31;;;12.75;100.00
48968;BME280;46511;53.148;8.204;2023-03-14T02:52:55;98669.69;;;12.32;100.00
48968;BME280;46511;53.148;8.204;2023-03-14T02:55:27;98674.44;;;12.10;100.00
48968;BME280;46511;53.148;8.204;2023-03-14T02:57:58;98667.88;;;12.32;100.00
48968;BME280;46511;53.148;8.204;2023-03-14T03:00:29;98650.00;;;12.24;100.00
48968;BME280;46511;53.148;8.204;2023-03-14T03:03:01;98663.50;;;12.31;100.00
48968;BME280;46511;53.148;8.204;2023-03-14T03:05:33;98686.22;;;12.08;100.00
48968;BME280;46511;53.148;8.204;2023-03-14T03:08:04;98670.50;;;11.21;100.00
48968;BME280;46511;53.148;8.204;2023-03-14T03:10:35;98674.16;;;11.20;100.00
48968;BME280;46511;53.148;8.204;2023-03-14T03:13:07;98675.81;;;11.21;100.00
48968;BME280;46511;53.148;8.204;2023-03-14T03:15:38;98676.06;;;11.27;100.00
48968;BME280;46511;53.148;8.204;2023-03-14T03:18:09;98680.88;;;11.14;100.00
48968;BME280;46511;53.148;8.204;2023-03-14T03:20:41;98669.72;;;10.91;100.00
48968;BME280;46511;53.148;8.204;2023-03-14T03:23:12;98664.50;;;10.90;100.00
48968;BME280;46511;53.148;8.204;2023-03-14T03:25:47;98651.63;;;11.14;100.00
48968;BME280;46511;53.148;8.204;2023-03-14T03:28:22;98642.31;;;10.81;100.00
48968;BME280;46511;53.148;8.204;2023-03-14T03:30:53;98646.19;;;11.06;100.00
48968;BME280;46511;53.148;8.204;2023-03-14T03:33:25;98638.88;;;11.18;100.00
48968;BME280;46511;53.148;8.204;2023-03-14T03:35:56;98647.03;;;11.06;100.00
48968;BME280;46511;53.148;8.204;2023-03-14T03:38:27;98652.75;;;11.11;100.00
48968;BME280;46511;53.148;8.204;2023-03-14T03:41:01;98664.22;;;11.12;100.00
48968;BME280;46511;53.148;8.204;2023-03-14T03:43:33;98651.22;;;11.19;100.00
48968;BME280;46511;53.148;8.204;2023-03-14T03:46:05;98656.97;;;11.04;100.00
48968;BME280;46511;53.148;8.204;2023-03-14T03:48:37;98652.66;;;10.84;100.00
48968;BME280;46511;53.148;8.204;2023-03-14T03:51:11;98642.00;;;10.94;100.00
48968;BME280;46511;53.148;8.204;2023-03-14T03:53:46;98651.22;;;10.80;100.00
48968;BME280;46511;53.148;8.204;2023-03-14T03:56:17;98643.69;;;10.85;100.00
48968;BME280;46511;53.148;8.204;2023-03-14T03:58:49;98647.19;;;10.76;100.00
48968;BME280;46511;53.148;8.204;2023-03-14T04:01:20;98645.66;;;11.02;100.00
48968;BME280;46511;53.148;8.204;2023-03-14T04:03:51;98645.22;;;10.97;100.00
48968;BME280;46511;53.148;8.204;2023-03-14T04:06:22;98637.84;;;10.91;100.00
48968;BME280;46511;53.148;8.204;2023-03-14T04:08:54;98638.91;;;10.98;100.00
48968;BME280;46511;53.148;8.204;2023-03-14T04:11:25;98636.34;;;11.26;100.00
48968;BME280;46511;53.148;8.204;2023-03-14T04:13:56;98638.88;;;11.27;100.00
48968;BME280;46511;53.148;8.204;2023-03-14T04:16:28;98649.66;;;11.26;100.00
48968;BME280;46511;53.148;8.204;2023-03-14T04:19:00;98643.03;;;11.49;100.00
48968;BME280;46511;53.148;8.204;2023-03-14T04:21:32;98637.47;;;11.33;100.00
48968;BME280;46511;53.148;8.204;2023-03-14T04:24:03;98639.38;;;11.50;100.00
48968;BME280;46511;53.148;8.204;2023-03-14T04:26:35;98643.19;;;11.38;100.00
48968;BME280;46511;53.148;8.204;2023-03-14T04:29:06;98649.88;;;11.52;100.00
48968;BME280;46511;53.148;8.204;2023-03-14T04:31:37;98641.88;;;11.52;100.00
48968;BME280;46511;53.148;8.204;2023-03-14T04:34:08;98639.72;;;11.37;100.00
48968;BME280;46511;53.148;8.204;2023-03-14T04:36:40;98645.56;;;11.41;100.00
48968;BME280;46511;53.148;8.204;2023-03-14T04:39:11;98646.66;;;11.48;100.00
48968;BME280;46511;53.148;8.204;2023-03-14T04:41:42;98642.78;;;11.33;100.00
48968;BME280;46511;53.148;8.204;2023-03-14T04:44:15;98645.06;;;11.28;100.00
48968;BME280;46511;53.148;8.204;2023-03-14T04:46:46;98634.63;;;11.44;100.00
48968;BME280;46511;53.148;8.204;2023-03-14T04:49:17;98637.63;;;11.31;100.00
48968;BME280;46511;53.148;8.204;2023-03-14T04:51:49;98639.69;;;11.47;100.00
48968;BME280;46511;53.148;8.204;2023-03-14T04:54:22;98625.78;;;11.06;100.00
48968;BME280;46511;53.148;8.204;2023-03-14T04:56:53;98631.72;;;11.37;100.00
48968;BME280;46511;53.148;8.204;2023-03-14T04:59:19;98627.59;;;11.53;100.00
48968;BME280;46511;53.148;8.204;2023-03-14T05:01:50;98623.34;;;11.32;100.00
48968;BME280;46511;53.148;8.204;2023-03-14T05:04:22;98622.63;;;11.40;100.00
48968;BME280;46511;53.148;8.204;2023-03-14T05:06:53;98614.81;;;11.29;100.00
48968;BME280;46511;53.148;8.204;2023-03-14T05:09:24;98616.75;;;11.36;100.00
48968;BME280;46511;53.148;8.204;2023-03-14T05:11:55;98622.00;;;11.56;100.00
48968;BME280;46511;53.148;8.204;2023-03-14T05:14:27;98615.91;;;11.36;100.00
48968;BME280;46511;53.148;8.204;2023-03-14T05:16:59;98617.31;;;11.40;100.00
48968;BME280;46511;53.148;8.204;2023-03-14T05:19:30;98613.53;;;11.33;100.00
48968;BME280;46511;53.148;8.204;2023-03-14T05:22:02;98612.56;;;11.34;100.00
48968;BME280;46511;53.148;8.204;2023-03-14T05:24:33;98601.59;;;11.56;100.00
48968;BME280;46511;53.148;8.204;2023-03-14T05:27:05;98594.38;;;11.39;100.00
48968;BME280;46511;53.148;8.204;2023-03-14T05:29:36;98604.50;;;11.53;100.00
48968;BME280;46511;53.148;8.204;2023-03-14T05:32:07;98597.63;;;11.60;100.00
48968;BME280;46511;53.148;8.204;2023-03-14T05:34:38;98601.47;;;11.48;100.00
48968;BME280;46511;53.148;8.204;2023-03-14T05:37:10;98597.63;;;11.60;100.00
48968;BME280;46511;53.148;8.204;2023-03-14T05:39:41;98599.25;;;11.34;100.00
48968;BME280;46511;53.148;8.204;2023-03-14T05:42:12;98611.81;;;11.51;100.00
48968;BME280;46511;53.148;8.204;2023-03-14T05:44:44;98602.16;;;11.50;100.00
48968;BME280;46511;53.148;8.204;2023-03-14T05:47:15;98609.59;;;11.74;100.00
48968;BME280;46511;53.148;8.204;2023-03-14T05:49:46;98591.22;;;11.53;100.00
48968;BME280;46511;53.148;8.204;2023-03-14T05:52:18;98598.06;;;11.56;100.00
48968;BME280;46511;53.148;8.204;2023-03-14T05:54:49;98601.31;;;11.50;100.00
48968;BME280;46511;53.148;8.204;2023-03-14T05:57:20;98610.72;;;11.34;100.00
48968;BME280;46511;53.148;8.204;2023-03-14T05:59:51;98597.69;;;11.04;100.00
48968;BME280;46511;53.148;8.204;2023-03-14T06:02:23;98610.94;;;11.13;100.00
48968;BME280;46511;53.148;8.204;2023-03-14T06:04:54;98611.22;;;11.20;100.00
48968;BME280;46511;53.148;8.204;2023-03-14T06:07:25;98605.38;;;10.87;100.00
48968;BME280;46511;53.148;8.204;2023-03-14T06:09:56;98616.28;;;10.94;100.00
48968;BME280;46511;53.148;8.204;2023-03-14T06:12:29;98621.25;;;11.26;100.00
48968;BME280;46511;53.148;8.204;2023-03-14T06:15:00;98604.00;;;10.83;100.00
48968;BME280;46511;53.148;8.204;2023-03-14T06:17:32;98611.28;;;10.91;100.00
48968;BME280;46511;53.148;8.204;2023-03-14T06:20:03;98604.97;;;11.02;100.00
48968;BME280;46511;53.148;8.204;2023-03-14T06:22:35;98605.31;;;11.16;100.00
48968;BME280;46511;53.148;8.204;2023-03-14T06:25:06;98605.09;;;11.00;100.00
48968;BME280;46511;53.148;8.204;2023-03-14T06:27:38;98602.28;;;11.11;100.00
48968;BME280;46511;53.148;8.204;2023-03-14T06:30:11;98599.06;;;10.98;100.00
48968;BME280;46511;53.148;8.204;2023-03-14T06:32:42;98607.53;;;11.31;100.00
48968;BME280;46511;53.148;8.204;2023-03-14T06:35:13;98596.66;;;11.14;100.00
48968;BME280;46511;53.148;8.204;2023-03-14T06:37:45;98600.56;;;11.30;100.00
48968;BME280;46511;53.148;8.204;2023-03-14T06:40:16;98604.19;;;11.29;100.00
48968;BME280;46511;53.148;8.204;2023-03-14T06:42:48;98603.09;;;11.22;100.00
48968;BME280;46511;53.148;8.204;2023-03-14T06:45:20;98601.59;;;11.09;100.00
48968;BME280;46511;53.148;8.204;2023-03-14T06:47:51;98593.88;;;11.53;100.00
48968;BME280;46511;53.148;8.204;2023-03-14T06:50:22;98590.84;;;11.48;100.00
48968;BME280;46511;53.148;8.204;2023-03-14T06:52:54;98598.63;;;11.59;100.00
48968;BME280;46511;53.148;8.204;2023-03-14T06:55:25;98593.94;;;11.71;100.00
48968;BME280;46511;53.148;8.204;2023-03-14T06:57:57;98596.03;;;12.76;100.00
48968;BME280;46511;53.148;8.204;2023-03-14T07:00:28;98598.72;;;12.58;100.00
48968;BME280;46511;53.148;8.204;2023-03-14T07:02:59;98590.47;;;12.87;100.00
48968;BME280;46511;53.148;8.204;2023-03-14T07:05:30;98595.44;;;12.28;100.00
48968;BME280;46511;53.148;8.204;2023-03-14T07:08:02;98609.78;;;12.00;100.00
48968;BME280;46511;53.148;8.204;2023-03-14T07:10:33;98593.97;;;11.98;100.00
48968;BME280;46511;53.148;8.204;2023-03-14T07:13:04;98606.13;;;12.01;100.00
48968;BME280;46511;53.148;8.204;2023-03-14T07:15:36;98615.19;;;11.81;100.00
48968;BME280;46511;53.148;8.204;2023-03-14T07:18:07;98610.97;;;11.88;100.00
48968;BME280;46511;53.148;8.204;2023-03-14T07:20:38;98628.19;;;11.56;100.00
48968;BME280;46511;53.148;8.204;2023-03-14T07:23:10;98616.81;;;11.91;100.00
48968;BME280;46511;53.148;8.204;2023-03-14T07:25:41;98615.72;;;11.84;100.00
48968;BME280;46511;53.148;8.204;2023-03-14T07:28:13;98614.06;;;11.73;100.00
48968;BME280;46511;53.148;8.204;2023-03-14T07:30:45;98622.56;;;11.59;100.00
48968;BME280;46511;53.148;8.204;2023-03-14T07:33:18;98608.03;;;11.44;100.00
48968;BME280;46511;53.148;8.204;2023-03-14T07:35:49;98615.94;;;11.26;100.00
48968;BME280;46511;53.148;8.204;2023-03-14T07:38:21;98638.56;;;11.40;100.00
48968;BME280;46511;53.148;8.204;2023-03-14T07:41:05;98635.44;;;11.54;100.00
48968;BME280;46511;53.148;8.204;2023-03-14T07:43:37;98638.22;;;11.62;100.00
48968;BME280;46511;53.148;8.204;2023-03-14T07:46:08;98641.66;;;11.72;100.00
48968;BME280;46511;53.148;8.204;2023-03-14T07:48:39;98645.19;;;11.63;100.00
48968;BME280;46511;53.148;8.204;2023-03-14T07:51:11;98641.28;;;11.67;100.00
48968;BME280;46511;53.148;8.204;2023-03-14T07:53:42;98653.59;;;11.68;100.00
48968;BME280;46511;53.148;8.204;2023-03-14T07:56:14;98656.25;;;11.68;100.00
48968;BME280;46511;53.148;8.204;2023-03-14T07:58:45;98657.47;;;11.84;100.00
48968;BME280;46511;53.148;8.204;2023-03-14T08:01:11;98653.84;;;11.65;100.00
48968;BME280;46511;53.148;8.204;2023-03-14T08:03:42;98646.88;;;11.64;100.00
48968;BME280;46511;53.148;8.204;2023-03-14T08:06:14;98655.44;;;12.05;100.00
48968;BME280;46511;53.148;8.204;2023-03-14T08:08:45;98664.75;;;11.82;100.00
48968;BME280;46511;53.148;8.204;2023-03-14T08:11:16;98672.53;;;11.93;100.00
48968;BME280;46511;53.148;8.204;2023-03-14T08:13:47;98675.56;;;11.70;100.00
48968;BME280;46511;53.148;8.204;2023-03-14T08:16:20;98680.94;;;11.98;100.00
48968;BME280;46511;53.148;8.204;2023-03-14T08:18:52;98669.06;;;12.20;100.00
48968;BME280;46511;53.148;8.204;2023-03-14T08:21:23;98693.03;;;11.83;100.00
48968;BME280;46511;53.148;8.204;2023-03-14T08:23:54;98684.91;;;11.74;100.00
48968;BME280;46511;53.148;8.204;2023-03-14T08:26:25;98695.28;;;11.78;100.00
48968;BME280;46511;53.148;8.204;2023-03-14T08:28:57;98694.13;;;11.90;100.00
48968;BME280;46511;53.148;8.204;2023-03-14T08:31:28;98682.91;;;11.96;100.00
48968;BME280;46511;53.148;8.204;2023-03-14T08:33:59;98757.88;;;12.19;100.00
48968;BME280;46511;53.148;8.204;2023-03-14T08:36:31;98777.84;;;10.70;100.00
48968;BME280;46511;53.148;8.204;2023-03-14T08:39:02;98802.09;;;9.64;100.00
48968;BME280;46511;53.148;8.204;2023-03-14T08:41:34;98803.56;;;9.57;100.00
48968;BME280;46511;53.148;8.204;2023-03-14T08:44:11;98801.75;;;9.36;100.00
48968;BME280;46511;53.148;8.204;2023-03-14T08:46:42;98824.53;;;9.60;100.00
48968;BME280;46511;53.148;8.204;2023-03-14T08:49:13;98843.28;;;9.04;100.00
48968;BME280;46511;53.148;8.204;2023-03-14T08:51:45;98855.63;;;8.82;100.00
48968;BME280;46511;53.148;8.204;2023-03-14T08:54:16;98872.19;;;8.06;100.00
48968;BME280;46511;53.148;8.204;2023-03-14T08:56:48;98880.03;;;7.72;100.00
48968;BME280;46511;53.148;8.204;2023-03-14T08:59:19;98903.06;;;7.35;100.00
48968;BME280;46511;53.148;8.204;2023-03-14T09:01:50;98921.25;;;7.03;100.00
48968;BME280;46511;53.148;8.204;2023-03-14T09:04:21;98944.34;;;7.12;100.00
48968;BME280;46511;53.148;8.204;2023-03-14T09:06:53;98953.53;;;7.43;100.00
48968;BME280;46511;53.148;8.204;2023-03-14T09:09:24;98960.00;;;6.90;100.00
48968;BME280;46511;53.148;8.204;2023-03-14T09:11:57;98970.06;;;6.85;100.00
48968;BME280;46511;53.148;8.204;2023-03-14T09:14:29;98986.63;;;6.62;100.00
48968;BME280;46511;53.148;8.204;2023-03-14T09:17:00;98996.03;;;6.53;100.00
48968;BME280;46511;53.148;8.204;2023-03-14T09:19:31;99009.72;;;5.66;100.00
48968;BME280;46511;53.148;8.204;2023-03-14T09:22:03;99026.50;;;6.19;100.00
48968;BME280;46511;53.148;8.204;2023-03-14T09:24:34;99023.91;;;6.05;100.00
48968;BME280;46511;53.148;8.204;2023-03-14T09:27:05;99035.53;;;6.15;100.00
48968;BME280;46511;53.148;8.204;2023-03-14T09:29:36;99042.81;;;6.76;100.00
48968;BME280;46511;53.148;8.204;2023-03-14T09:32:08;99043.66;;;6.77;100.00
48968;BME280;46511;53.148;8.204;2023-03-14T09:34:39;99055.00;;;6.39;100.00
48968;BME280;46511;53.148;8.204;2023-03-14T09:37:10;99067.09;;;6.94;100.00
48968;BME280;46511;53.148;8.204;2023-03-14T09:39:42;99072.06;;;7.11;100.00
48968;BME280;46511;53.148;8.204;2023-03-14T09:42:17;99080.78;;;6.99;100.00
48968;BME280;46511;53.148;8.204;2023-03-14T09:45:03;99088.50;;;6.64;100.00
48968;BME280;46511;53.148;8.204;2023-03-14T09:47:36;99107.81;;;6.90;100.00
48968;BME280;46511;53.148;8.204;2023-03-14T09:50:11;99120.94;;;7.04;100.00
48968;BME280;46511;53.148;8.204;2023-03-14T09:52:45;99122.84;;;7.15;100.00
48968;BME280;46511;53.148;8.204;2023-03-14T09:55:21;99140.16;;;7.32;100.00
48968;BME280;46511;53.148;8.204;2023-03-14T09:57:55;99154.41;;;7.16;100.00
48968;BME280;46511;53.148;8.204;2023-03-14T10:00:30;99164.84;;;7.56;100.00
48968;BME280;46511;53.148;8.204;2023-03-14T10:03:17;99177.13;;;7.57;100.00
48968;BME280;46511;53.148;8.204;2023-03-14T10:05:52;99174.25;;;6.84;100.00
48968;BME280;46511;53.148;8.204;2023-03-14T10:08:24;99181.69;;;7.30;100.00
48968;BME280;46511;53.148;8.204;2023-03-14T10:10:55;99187.16;;;7.27;100.00
48968;BME280;46511;53.148;8.204;2023-03-14T10:13:27;99199.75;;;7.61;100.00
48968;BME280;46511;53.148;8.204;2023-03-14T10:16:01;99214.22;;;7.81;100.00
48968;BME280;46511;53.148;8.204;2023-03-14T10:18:35;99223.22;;;7.53;100.00
48968;BME280;46511;53.148;8.204;2023-03-14T10:21:07;99236.41;;;7.28;100.00
48968;BME280;46511;53.148;8.204;2023-03-14T10:23:49;99244.16;;;7.69;100.00
48968;BME280;46511;53.148;8.204;2023-03-14T10:26:24;99254.88;;;7.28;100.00
48968;BME280;46511;53.148;8.204;2023-03-14T10:29:02;99266.22;;;7.55;100.00
48968;BME280;46511;53.148;8.204;2023-03-14T10:31:51;99274.03;;;7.31;100.00
48968;BME280;46511;53.148;8.204;2023-03-14T10:34:28;99270.66;;;7.42;100.00
48968;BME280;46511;53.148;8.204;2023-03-14T10:37:34;99281.75;;;7.34;100.00
48968;BME280;46511;53.148;8.204;2023-03-14T10:39:59;99286.22;;;7.85;100.00
48968;BME280;46511;53.148;8.204;2023-03-14T10:42:39;99279.13;;;7.85;100.00
48968;BME280;46511;53.148;8.204;2023-03-14T10:45:29;99284.47;;;8.71;100.00
48968;BME280;46511;53.148;8.204;2023-03-14T10:50:49;99295.56;;;9.24;100.00
48968;BME280;46511;53.148;8.204;2023-03-14T10:53:25;99285.91;;;10.27;100.00
48968;BME280;46511;53.148;8.204;2023-03-14T10:55:57;99287.22;;;11.93;100.00
48968;BME280;46511;53.148;8.204;2023-03-14T10:58:35;99288.81;;;12.36;100.00
48968;BME280;46511;53.148;8.204;2023-03-14T11:04:10;99303.75;;;11.76;100.00
48968;BME280;46511;53.148;8.204;2023-03-14T11:09:46;99315.41;;;12.26;100.00
48968;BME280;46511;53.148;8.204;2023-03-14T11:16:02;99338.16;;;12.70;100.00
48968;BME280;46511;53.148;8.204;2023-03-14T11:18:48;99340.34;;;14.76;100.00
48968;BME280;46511;53.148;8.204;2023-03-14T11:21:32;99352.84;;;13.82;100.00
48968;BME280;46511;53.148;8.204;2023-03-14T11:30:00;99367.41;;;14.17;95.28
48968;BME280;46511;53.148;8.204;2023-03-14T11:32:45;99382.50;;;13.98;89.97
48968;BME280;46511;53.148;8.204;2023-03-14T11:35:20;99383.41;;;14.46;86.78
48968;BME280;46511;53.148;8.204;2023-03-14T11:38:03;99396.56;;;13.52;91.44
48968;BME280;46511;53.148;8.204;2023-03-14T11:40:42;99405.97;;;12.36;95.60
48968;BME280;46511;53.148;8.204;2023-03-14T11:43:17;99421.72;;;11.22;100.00
48968;BME280;46511;53.148;8.204;2023-03-14T11:46:05;99423.81;;;10.84;100.00
48968;BME280;46511;53.148;8.204;2023-03-14T11:48:43;99438.63;;;10.31;100.00
48968;BME280;46511;53.148;8.204;2023-03-14T11:51:23;99438.50;;;10.33;100.00
48968;BME280;46511;53.148;8.204;2023-03-14T11:54:09;99449.91;;;11.56;100.00
48968;BME280;46511;53.148;8.204;2023-03-14T11:56:59;99448.69;;;13.66;88.42
48968;BME280;46511;53.148;8.204;2023-03-14T11:59:53;99464.16;;;15.14;70.00
48968;BME280;46511;53.148;8.204;2023-03-14T12:10:38;99496.91;;;15.53;49.33
48968;BME280;46511;53.148;8.204;2023-03-14T12:13:10;99510.09;;;15.09;50.47
48968;BME280;46511;53.148;8.204;2023-03-14T12:15:54;99527.38;;;14.39;52.75
48968;BME280;46511;53.148;8.204;2023-03-14T12:18:31;99543.03;;;13.25;55.39
48968;BME280;46511;53.148;8.204;2023-03-14T12:21:11;99544.47;;;13.69;50.51
48968;BME280;46511;53.148;8.204;2023-03-14T12:26:23;99557.59;;;13.41;49.75
48968;BME280;46511;53.148;8.204;2023-03-14T12:48:00;99625.75;;;13.95;39.33
48968;BME280;46511;53.148;8.204;2023-03-14T12:51:16;99642.06;;;13.31;43.33
48968;BME280;46511;53.148;8.204;2023-03-14T12:59:02;99669.31;;;11.62;44.46
48968;BME280;46511;53.148;8.204;2023-03-14T13:01:48;99673.16;;;15.48;36.37
48968;BME280;46511;53.148;8.204;2023-03-14T13:04:45;99647.56;;;20.38;28.77
48968;BME280;46511;53.148;8.204;2023-03-14T13:10:30;99671.59;;;18.55;28.81
48968;BME280;46511;53.148;8.204;2023-03-14T13:15:55;99695.69;;;14.39;35.41
48968;BME280;46511;53.148;8.204;2023-03-14T13:18:41;99710.22;;;13.24;39.26
48968;BME280;46511;53.148;8.204;2023-03-14T13:21:20;99704.66;;;12.09;42.38
48968;BME280;46511;53.148;8.204;2023-03-14T13:24:07;99734.84;;;11.05;47.66
48968;BME280;46511;53.148;8.204;2023-03-14T13:26:53;99739.03;;;9.99;53.56
48968;BME280;46511;53.148;8.204;2023-03-14T13:29:27;99746.88;;;10.01;55.68
48968;BME280;46511;53.148;8.204;2023-03-14T13:32:12;99763.22;;;10.08;56.58
48968;BME280;46511;53.148;8.204;2023-03-14T13:34:47;99755.28;;;10.08;58.02
48968;BME280;46511;53.148;8.204;2023-03-14T13:37:20;99778.91;;;10.36;58.72
48968;BME280;46511;53.148;8.204;2023-03-14T13:39:54;99775.00;;;10.29;57.81
48968;BME280;46511;53.148;8.204;2023-03-14T13:42:24;99784.03;;;10.87;55.65
48968;BME280;46511;53.148;8.204;2023-03-14T13:44:57;99787.72;;;11.21;54.11
48968;BME280;46511;53.148;8.204;2023-03-14T13:47:28;99794.53;;;14.70;44.90
48968;BME280;46511;53.148;8.204;2023-03-14T13:50:00;99797.88;;;13.70;40.48
48968;BME280;46511;53.148;8.204;2023-03-14T13:52:35;99790.91;;;12.62;44.26
48968;BME280;46511;53.148;8.204;2023-03-14T13:55:14;99812.13;;;12.41;47.09
48968;BME280;46511;53.148;8.204;2023-03-14T13:57:50;99832.69;;;13.05;44.24
48968;BME280;46511;53.148;8.204;2023-03-14T14:00:26;99815.91;;;13.78;38.43
48968;BME280;46511;53.148;8.204;2023-03-14T14:02:58;99823.50;;;13.41;38.61
48968;BME280;46511;53.148;8.204;2023-03-14T14:05:30;99842.47;;;12.05;40.58
48968;BME280;46511;53.148;8.204;2023-03-14T14:08:03;99858.72;;;11.43;42.89
48968;BME280;46511;53.148;8.204;2023-03-14T14:10:35;99864.19;;;10.44;46.65
48968;BME280;46511;53.148;8.204;2023-03-14T14:13:09;99873.56;;;10.74;49.39
48968;BME280;46511;53.148;8.204;2023-03-14T14:15:46;99879.13;;;12.01;47.32
48968;BME280;46511;53.148;8.204;2023-03-14T14:18:23;99874.94;;;13.64;42.60
48968;BME280;46511;53.148;8.204;2023-03-14T14:20:57;99883.34;;;13.80;38.95
48968;BME280;46511;53.148;8.204;2023-03-14T14:23:29;99885.34;;;12.24;40.83
48968;BME280;46511;53.148;8.204;2023-03-14T14:26:02;99913.38;;;11.71;43.55
48968;BME280;46511;53.148;8.204;2023-03-14T14:28:36;99912.16;;;12.10;43.48
48968;BME280;46511;53.148;8.204;2023-03-14T14:33:58;99923.34;;;13.27;40.39
48968;BME280;46511;53.148;8.204;2023-03-14T14:39:17;99946.03;;;11.97;40.01